createdAt,value
2022-10-01T00:02:30.564Z,59.24
2022-10-01T00:05:32.621Z,59.22
2022-10-01T00:08:35.135Z,59.21
2022-10-01T00:11:37.276Z,59.27
2022-10-01T00:14:39.359Z,59.27
2022-10-01T00:17:42.192Z,59.29
2022-10-01T00:20:44.556Z,59.25
2022-10-01T00:23:47.291Z,59.22
2022-10-01T00:26:49.279Z,59.23
2022-10-01T00:29:51.523Z,59.18
2022-10-01T00:32:54.760Z,59.21
2022-10-01T00:35:56.927Z,59.24
2022-10-01T00:39:00.597Z,59.25
2022-10-01T00:42:04.716Z,59.25
2022-10-01T00:45:07.134Z,59.32
2022-10-01T00:48:09.207Z,59.25
2022-10-01T00:51:13.569Z,59.28
2022-10-01T00:54:23.220Z,59.32
2022-10-01T00:57:27.462Z,59.30
2022-10-01T01:00:30.349Z,59.28
2022-10-01T01:03:32.388Z,59.30
2022-10-01T01:06:34.375Z,59.30
2022-10-01T01:09:44.414Z,59.28
2022-10-01T01:13:06.021Z,59.29
2022-10-01T01:16:34.346Z,59.23
2022-10-01T01:20:07.777Z,59.32
2022-10-01T01:23:18.907Z,59.32
2022-10-01T01:26:24.483Z,59.30
2022-10-01T01:29:46.514Z,59.28
2022-10-01T01:33:03.036Z,59.28
2022-10-01T01:36:13.711Z,59.26
2022-10-01T01:39:17.850Z,59.25
2022-10-01T01:42:27.561Z,59.16
2022-10-01T01:45:30.740Z,59.19
2022-10-01T01:48:36.447Z,59.30
2022-10-01T01:51:41.122Z,59.24
2022-10-01T01:54:46.876Z,59.29
2022-10-01T01:57:49.400Z,59.25
2022-10-01T02:00:52.339Z,59.25
2022-10-01T02:03:54.506Z,59.28
2022-10-01T02:07:16.522Z,59.22
2022-10-01T02:10:24.147Z,59.25
2022-10-01T02:13:41.233Z,59.29
2022-10-01T02:16:52.605Z,59.17
2022-10-01T02:19:59.382Z,59.27
2022-10-01T02:23:07.530Z,59.27
2022-10-01T02:26:15.005Z,59.25
2022-10-01T02:29:19.572Z,59.25
2022-10-01T02:32:22.875Z,59.25
2022-10-01T02:35:26.188Z,59.17
2022-10-01T02:38:29.398Z,59.25
2022-10-01T02:41:37.092Z,59.27
2022-10-01T02:44:42.474Z,59.34
2022-10-01T02:47:49.025Z,59.30
2022-10-01T02:51:00.083Z,59.26
2022-10-01T02:54:13.980Z,59.25
2022-10-01T02:57:23.221Z,59.26
2022-10-01T03:00:26.956Z,59.27
2022-10-01T03:03:31.041Z,59.33
2022-10-01T03:06:35.681Z,59.22
2022-10-01T03:09:37.765Z,59.30
2022-10-01T03:12:45.041Z,59.34
2022-10-01T03:15:47.318Z,59.31
2022-10-01T03:18:49.407Z,59.33
2022-10-01T03:21:51.464Z,59.34
2022-10-01T03:24:53.860Z,59.36
2022-10-01T03:27:55.938Z,59.35
2022-10-01T03:31:09.307Z,59.31
2022-10-01T03:34:11.883Z,59.34
2022-10-01T03:37:13.924Z,59.35
2022-10-01T03:40:15.973Z,59.35
2022-10-01T03:43:17.994Z,59.36
2022-10-01T03:46:20.030Z,59.37
2022-10-01T03:49:22.029Z,59.37
2022-10-01T03:52:24.083Z,59.38
2022-10-01T03:55:26.440Z,59.31
2022-10-01T03:58:28.472Z,59.41
2022-10-01T04:01:30.857Z,59.39
2022-10-01T04:04:33.044Z,59.41
2022-10-01T04:07:35.026Z,59.44
2022-10-01T04:10:37.364Z,59.47
2022-10-01T04:13:39.504Z,59.43
2022-10-01T04:16:41.520Z,59.37
2022-10-01T04:19:43.538Z,59.42
2022-10-01T04:22:46.089Z,59.46
2022-10-01T04:25:48.290Z,59.46
2022-10-01T04:28:50.485Z,59.40
2022-10-01T04:31:53.420Z,59.48
2022-10-01T04:34:55.579Z,59.44
2022-10-01T04:38:05.563Z,59.45
2022-10-01T04:41:08.812Z,59.47
2022-10-01T04:44:10.856Z,59.44
2022-10-01T04:47:13.163Z,59.44
2022-10-01T04:50:16.639Z,59.41
2022-10-01T04:53:18.708Z,59.46
2022-10-01T04:56:20.702Z,59.35
2022-10-01T04:59:23.377Z,59.47
2022-10-01T05:02:25.493Z,59.29
2022-10-01T05:05:29.247Z,59.44
2022-10-01T05:08:31.283Z,59.48
2022-10-01T05:11:34.737Z,59.36
2022-10-01T05:14:36.944Z,59.44
2022-10-01T05:17:39.096Z,59.41
2022-10-01T05:20:41.146Z,59.35
2022-10-01T05:23:43.395Z,59.48
2022-10-01T05:26:45.519Z,59.48
2022-10-01T05:29:47.787Z,59.54
2022-10-01T05:32:58.566Z,59.62
2022-10-01T05:36:00.854Z,59.68
2022-10-01T05:39:02.921Z,59.61
2022-10-01T05:42:06.474Z,59.66
2022-10-01T05:45:09.691Z,59.67
2022-10-01T05:48:12.730Z,59.70
2022-10-01T05:51:15.118Z,59.67
2022-10-01T05:54:19.533Z,59.62
2022-10-01T05:57:21.573Z,59.55
2022-10-01T06:00:23.834Z,59.47
2022-10-01T06:03:28.717Z,59.70
2022-10-01T06:06:30.797Z,59.33
2022-10-01T06:09:32.843Z,59.23
2022-10-01T06:12:34.880Z,59.17
2022-10-01T06:15:38.622Z,59.14
2022-10-01T06:18:41.711Z,59.08
2022-10-01T06:21:43.856Z,58.99
2022-10-01T06:24:46.003Z,58.99
2022-10-01T06:27:58.896Z,58.89
2022-10-01T06:31:04.411Z,58.83
2022-10-01T06:34:06.632Z,58.99
2022-10-01T06:37:08.672Z,58.78
2022-10-01T06:40:10.945Z,58.92
2022-10-01T06:43:12.994Z,58.83
2022-10-01T06:46:15.105Z,58.83
2022-10-01T06:49:20.445Z,58.89
2022-10-01T06:52:41.027Z,58.80
2022-10-01T06:55:43.556Z,58.83
2022-10-01T06:58:45.592Z,58.86
2022-10-01T07:01:55.467Z,58.87
2022-10-01T07:04:59.294Z,58.87
2022-10-01T07:08:01.614Z,58.87
2022-10-01T07:11:04.898Z,58.87
2022-10-01T07:14:07.427Z,59.09
2022-10-01T07:17:09.662Z,59.12
2022-10-01T07:20:12.128Z,59.44
2022-10-01T07:23:15.626Z,59.41
2022-10-01T07:26:17.915Z,59.54
2022-10-01T07:29:19.940Z,60.02
2022-10-01T07:32:21.919Z,59.83
2022-10-01T07:35:24.171Z,59.90
2022-10-01T07:38:26.153Z,59.98
2022-10-01T07:41:28.207Z,60.12
2022-10-01T07:44:30.406Z,60.10
2022-10-01T07:47:32.631Z,60.62
2022-10-01T07:50:34.622Z,60.57
2022-10-01T07:53:38.448Z,60.43
2022-10-01T07:56:41.619Z,60.61
2022-10-01T07:59:43.922Z,60.64
2022-10-01T08:02:51.152Z,60.63
2022-10-01T08:05:54.260Z,60.67
2022-10-01T08:08:56.365Z,60.67
2022-10-01T08:11:58.653Z,60.65
2022-10-01T08:15:02.364Z,60.54
2022-10-01T08:18:05.108Z,60.60
2022-10-01T08:21:07.925Z,60.53
2022-10-01T08:24:10.055Z,60.80
2022-10-01T08:27:12.121Z,60.99
2022-10-01T08:30:14.267Z,61.21
2022-10-01T08:33:16.351Z,61.21
2022-10-01T08:36:19.057Z,61.11
2022-10-01T08:39:21.177Z,61.16
2022-10-01T08:42:36.356Z,61.26
2022-10-01T08:45:53.513Z,61.76
2022-10-01T08:49:16.016Z,60.85
2022-10-01T08:52:29.487Z,61.17
2022-10-01T08:55:36.607Z,60.51
2022-10-01T08:58:47.037Z,60.16
2022-10-01T09:01:49.161Z,59.77
2022-10-01T09:05:01.241Z,59.71
2022-10-01T09:08:15.258Z,59.30
2022-10-01T09:11:25.915Z,58.97
2022-10-01T09:15:06.039Z,58.81
2022-10-01T09:18:22.771Z,58.36
2022-10-01T09:21:56.928Z,58.16
2022-10-01T09:25:09.196Z,57.84
2022-10-01T09:28:16.093Z,58.05
2022-10-01T09:31:26.446Z,58.06
2022-10-01T09:34:38.879Z,57.80
2022-10-01T09:37:47.023Z,57.64
2022-10-01T09:40:55.967Z,57.51
2022-10-01T09:43:57.982Z,57.51
2022-10-01T09:47:00.207Z,57.64
2022-10-01T09:50:06.405Z,58.31
2022-10-01T09:53:19.317Z,58.83
2022-10-01T09:56:35.812Z,58.87
2022-10-01T10:00:01.148Z,59.22
2022-10-01T10:03:03.431Z,59.78
2022-10-01T10:06:06.580Z,59.38
2022-10-01T10:09:16.547Z,59.19
2022-10-01T10:12:30.668Z,59.09
2022-10-01T10:15:33.146Z,59.06
2022-10-01T10:18:38.364Z,59.11
2022-10-01T10:21:54.138Z,59.08
2022-10-01T10:25:05.239Z,59.00
2022-10-01T10:28:20.756Z,58.91
2022-10-01T10:31:25.625Z,58.88
2022-10-01T10:34:40.480Z,58.85
2022-10-01T10:37:53.893Z,58.77
2022-10-01T10:40:57.585Z,58.76
2022-10-01T10:44:03.668Z,58.86
2022-10-01T10:47:11.223Z,58.81
2022-10-01T10:50:27.067Z,58.83
2022-10-01T10:53:38.942Z,58.80
2022-10-01T10:56:51.013Z,58.81
2022-10-01T11:00:00.052Z,58.80
2022-10-01T11:03:05.380Z,58.81
2022-10-01T11:06:12.993Z,59.07
2022-10-01T11:09:18.767Z,58.93
2022-10-01T11:12:29.137Z,58.67
2022-10-01T11:15:52.037Z,58.93
2022-10-01T11:19:07.667Z,58.70
2022-10-01T11:22:23.921Z,58.56
2022-10-01T11:25:51.785Z,58.71
2022-10-01T11:29:16.454Z,58.83
2022-10-01T11:32:47.671Z,58.51
2022-10-01T11:36:25.315Z,58.64
2022-10-01T11:39:30.082Z,58.58
2022-10-01T11:42:36.554Z,58.36
2022-10-01T11:45:47.696Z,58.41
2022-10-01T11:49:22.057Z,58.40
2022-10-01T11:52:53.062Z,58.45
2022-10-01T11:56:30.846Z,58.54
2022-10-01T12:00:01.699Z,58.51
2022-10-01T12:03:06.732Z,58.30
2022-10-01T12:06:14.656Z,58.38
2022-10-01T12:09:20.756Z,58.31
2022-10-01T12:12:35.796Z,58.30
2022-10-01T12:16:19.861Z,58.29
2022-10-01T12:19:29.763Z,58.25
2022-10-01T12:22:35.442Z,58.31
2022-10-01T12:26:07.582Z,58.29
2022-10-01T12:29:40.235Z,58.26
2022-10-01T12:33:10.770Z,58.16
2022-10-01T12:36:17.078Z,58.28
2022-10-01T12:39:31.608Z,58.21
2022-10-01T12:42:49.137Z,58.13
2022-10-01T12:46:18.550Z,58.25
2022-10-01T12:49:40.992Z,58.35
2022-10-01T12:52:59.635Z,58.54
2022-10-01T12:56:06.182Z,58.30
2022-10-01T12:59:24.973Z,58.38
2022-10-01T13:02:30.312Z,58.49
2022-10-01T13:05:43.258Z,58.59
2022-10-01T13:09:02.038Z,58.60
2022-10-01T13:12:30.498Z,58.63
2022-10-01T13:15:37.915Z,58.70
2022-10-01T13:18:54.485Z,58.68
2022-10-01T13:21:59.303Z,58.64
2022-10-01T13:25:04.374Z,58.79
2022-10-01T13:28:18.821Z,58.79
2022-10-01T13:31:51.402Z,58.85
2022-10-01T13:34:56.264Z,58.80
2022-10-01T13:37:58.917Z,58.85
2022-10-01T13:41:03.723Z,58.71
2022-10-01T13:44:08.933Z,58.92
2022-10-01T13:47:13.244Z,59.11
2022-10-01T13:50:24.163Z,58.97
2022-10-01T13:53:27.907Z,58.90
2022-10-01T13:56:31.924Z,58.83
2022-10-01T13:59:36.276Z,59.02
2022-10-01T14:02:41.985Z,59.06
2022-10-01T14:05:44.346Z,59.22
2022-10-01T14:09:09.979Z,59.23
2022-10-01T14:12:42.745Z,59.37
2022-10-01T14:16:00.038Z,59.38
2022-10-01T14:19:02.582Z,59.48
2022-10-01T14:22:14.010Z,59.26
2022-10-01T14:25:30.669Z,59.36
2022-10-01T14:29:03.594Z,59.35
2022-10-01T14:32:17.471Z,59.68
2022-10-01T14:35:32.615Z,59.56
2022-10-01T14:38:34.727Z,59.54
2022-10-01T14:41:36.743Z,59.41
2022-10-01T14:44:41.741Z,59.41
2022-10-01T14:47:44.199Z,59.67
2022-10-01T14:50:49.683Z,59.35
2022-10-01T14:53:53.880Z,59.10
2022-10-01T14:56:56.523Z,59.19
2022-10-01T15:00:01.422Z,59.22
2022-10-01T15:03:15.435Z,59.16
2022-10-01T15:06:29.670Z,59.19
2022-10-01T15:09:34.022Z,59.01
2022-10-01T15:12:41.238Z,59.03
2022-10-01T15:15:43.455Z,58.94
2022-10-01T15:18:48.799Z,58.98
2022-10-01T15:21:59.604Z,58.89
2022-10-01T15:25:02.311Z,58.86
2022-10-01T15:28:24.129Z,58.74
2022-10-01T15:31:26.235Z,58.76
2022-10-01T15:34:28.461Z,58.76
2022-10-01T15:37:34.212Z,58.80
2022-10-01T15:40:37.401Z,58.75
2022-10-01T15:43:41.571Z,58.64
2022-10-01T15:46:43.626Z,58.75
2022-10-01T15:50:10.837Z,58.64
2022-10-01T15:53:20.708Z,58.60
2022-10-01T15:56:24.736Z,58.60
2022-10-01T15:59:26.783Z,58.61
2022-10-01T16:02:31.187Z,58.55
2022-10-01T16:05:44.571Z,58.58
2022-10-01T16:09:17.989Z,58.70
2022-10-01T16:12:23.924Z,58.75
2022-10-01T16:15:32.054Z,58.43
2022-10-01T16:18:34.830Z,58.43
2022-10-01T16:21:40.798Z,58.59
2022-10-01T16:24:45.576Z,58.67
2022-10-01T16:27:49.709Z,58.99
2022-10-01T16:30:51.876Z,58.84
2022-10-01T16:33:54.019Z,58.75
2022-10-01T16:36:56.100Z,58.70
2022-10-01T16:39:58.120Z,58.67
2022-10-01T16:43:02.396Z,58.73
2022-10-01T16:46:04.787Z,58.76
2022-10-01T16:49:11.913Z,58.82
2022-10-01T16:52:16.606Z,58.87
2022-10-01T16:55:26.897Z,58.98
2022-10-01T16:58:29.244Z,59.22
2022-10-01T17:01:31.584Z,59.34
2022-10-01T17:04:34.467Z,59.35
2022-10-01T17:07:36.490Z,59.26
2022-10-01T17:10:52.949Z,59.01
2022-10-01T17:13:55.201Z,59.14
2022-10-01T17:16:57.584Z,59.32
2022-10-01T17:19:59.661Z,59.25
2022-10-01T17:23:01.775Z,59.53
2022-10-01T17:26:08.517Z,59.44
2022-10-01T17:29:10.595Z,59.50
2022-10-01T17:32:12.723Z,59.39
2022-10-01T17:35:15.624Z,59.43
2022-10-01T17:38:19.077Z,59.42
2022-10-01T17:41:21.146Z,59.38
2022-10-01T17:44:23.180Z,59.38
2022-10-01T17:47:25.371Z,59.36
2022-10-01T17:50:27.601Z,60.02
2022-10-01T17:53:35.938Z,59.93
2022-10-01T17:56:41.999Z,60.02
2022-10-01T17:59:43.996Z,60.07
2022-10-01T18:02:46.500Z,60.11
2022-10-01T18:05:48.610Z,60.04
2022-10-01T18:08:55.703Z,60.03
2022-10-01T18:11:58.484Z,60.02
2022-10-01T18:15:01.319Z,60.00
2022-10-01T18:21:25.493Z,59.90
2022-10-01T18:24:28.639Z,59.86
2022-10-01T18:27:30.731Z,59.88
2022-10-01T18:30:32.734Z,59.87
2022-10-01T18:33:35.598Z,59.82
2022-10-01T18:36:57.133Z,59.78
2022-10-01T18:40:11.885Z,59.80
2022-10-01T18:43:24.237Z,59.80
2022-10-01T18:46:57.637Z,59.76
2022-10-01T18:50:17.480Z,59.80
2022-10-01T18:53:28.187Z,59.70
2022-10-01T18:56:39.643Z,59.73
2022-10-01T19:00:00.660Z,59.70
2022-10-01T19:03:45.036Z,59.70
2022-10-01T19:06:56.263Z,59.57
2022-10-01T19:10:22.951Z,59.63
2022-10-01T19:13:37.644Z,59.46
2022-10-01T19:16:54.081Z,59.44
2022-10-01T19:20:21.886Z,59.44
2022-10-01T19:23:48.628Z,59.41
2022-10-01T19:27:17.816Z,59.39
2022-10-01T19:30:19.996Z,59.39
2022-10-01T19:33:22.609Z,59.32
2022-10-01T19:36:34.533Z,59.25
2022-10-01T19:39:39.052Z,59.22
2022-10-01T19:42:46.343Z,59.24
2022-10-01T19:45:58.837Z,59.22
2022-10-01T19:49:00.938Z,59.17
2022-10-01T19:52:12.193Z,59.18
2022-10-01T19:55:16.384Z,59.16
2022-10-01T19:58:20.051Z,59.16
2022-10-01T20:01:29.779Z,59.12
2022-10-01T20:04:51.686Z,59.17
2022-10-01T20:07:59.783Z,59.19
2022-10-01T20:11:04.346Z,59.12
2022-10-01T20:15:02.496Z,59.16
2022-10-01T20:18:39.696Z,59.17
2022-10-01T20:22:12.588Z,59.06
2022-10-01T20:25:43.006Z,59.05
2022-10-01T20:29:14.190Z,59.07
2022-10-01T20:32:20.679Z,59.17
2022-10-01T20:35:43.013Z,59.02
2022-10-01T20:39:05.506Z,59.09
2022-10-01T20:42:14.918Z,59.09
2022-10-01T20:45:25.112Z,59.03
2022-10-01T20:48:36.761Z,59.07
2022-10-01T20:51:46.180Z,59.09
2022-10-01T20:54:54.210Z,59.03
2022-10-01T20:58:05.133Z,59.00
2022-10-01T21:01:22.136Z,59.02
2022-10-01T21:04:32.408Z,59.00
2022-10-01T21:07:37.744Z,59.01
2022-10-01T21:10:54.259Z,59.01
2022-10-01T21:14:04.861Z,59.06
2022-10-01T21:17:21.722Z,58.97
2022-10-01T21:20:55.032Z,58.94
2022-10-01T21:24:13.692Z,58.92
2022-10-01T21:27:24.132Z,58.97
2022-10-01T21:30:35.581Z,58.96
2022-10-01T21:33:45.902Z,58.97
2022-10-01T21:37:15.144Z,59.10
2022-10-01T21:40:25.721Z,59.00
2022-10-01T21:43:56.588Z,59.01
2022-10-01T21:47:19.593Z,59.06
2022-10-01T21:50:44.214Z,59.03
2022-10-01T21:54:03.951Z,58.96
2022-10-01T21:57:20.664Z,58.96
2022-10-01T22:00:26.375Z,59.03
2022-10-01T22:03:40.929Z,59.05
2022-10-01T22:07:11.301Z,59.05
2022-10-01T22:10:34.602Z,59.05
2022-10-01T22:13:47.853Z,59.07
2022-10-01T22:16:57.140Z,59.08
2022-10-01T22:20:02.492Z,59.14
2022-10-01T22:23:09.874Z,59.14
2022-10-01T22:26:16.869Z,59.17
2022-10-01T22:29:25.064Z,59.25
2022-10-01T22:32:32.853Z,59.20
2022-10-01T22:35:41.187Z,59.18
2022-10-01T22:38:55.019Z,59.12
2022-10-01T22:42:10.333Z,59.17
2022-10-01T22:45:20.961Z,59.19
2022-10-01T22:48:53.694Z,59.22
2022-10-01T22:52:14.690Z,59.21
2022-10-01T22:55:31.136Z,59.21
2022-10-01T22:58:38.900Z,59.27
2022-10-01T23:02:00.146Z,59.30
2022-10-01T23:05:38.108Z,59.20
2022-10-01T23:09:05.357Z,59.22
2022-10-01T23:12:29.371Z,59.25
2022-10-01T23:15:56.017Z,59.21
2022-10-01T23:19:26.126Z,59.22
2022-10-01T23:22:57.866Z,59.26
2022-10-01T23:26:27.348Z,59.27
2022-10-01T23:29:53.722Z,59.23
2022-10-01T23:33:13.972Z,59.23
2022-10-01T23:36:46.647Z,59.26
2022-10-01T23:40:00.082Z,59.36
2022-10-01T23:43:29.676Z,59.38
2022-10-01T23:46:33.883Z,59.36
2022-10-01T23:49:39.162Z,59.35
2022-10-01T23:52:49.562Z,59.28
2022-10-01T23:56:41.309Z,59.31
